Time;durP1;ratioP1;P1;durP2;ratioP2;P2;SDS_P1;SDS_P2;PMS_P1;PMS_P2;Temp;Humidity;BMP_temperature;BMP_pressure;BME280_temperature;BME280_humidity;BME280_pressure;Samples;Min_cycle;Max_cycle;Signal;HPM_P1;HPM_P2
2022/04/02 00:01:24;;;;;;;7.93;2.78;;;;;;;;;;5068233;28;20044;-80
2022/04/02 00:03:51;;;;;;;6.90;2.80;;;;;;;;;;5068645;28;20537;-81
2022/04/02 00:06:17;;;;;;;5.97;3.20;;;;;;;;;;5068242;28;20468;-80
2022/04/02 00:08:43;;;;;;;6.18;3.10;;;;;;;;;;5051929;28;20036;-80
2022/04/02 00:11:09;;;;;;;6.88;2.88;;;;;;;;;;5068133;28;20040;-80
2022/04/02 00:13:35;;;;;;;7.43;3.03;;;;;;;;;;5068639;28;20036;-80
2022/04/02 00:16:02;;;;;;;7.57;3.30;;;;;;;;;;5051666;28;20528;-80
2022/04/02 00:18:31;;;;;;;4.72;2.65;;;;;;;;;;5067991;28;20051;-80
2022/04/02 00:20:58;;;;;;;6.00;2.92;;;;;;;;;;5067896;28;20134;-80
2022/04/02 00:23:39;;;;;;;6.75;3.20;;;;;;;;;;5068322;28;20040;-80
2022/04/02 00:26:09;;;;;;;8.05;3.55;;;;;;;;;;5067560;28;20119;-80
2022/04/02 00:28:36;;;;;;;8.13;3.13;;;;;;;;;;5068248;28;20504;-81
2022/04/02 00:31:03;;;;;;;6.50;2.83;;;;;;;;;;5067879;28;20036;-80
2022/04/02 00:33:29;;;;;;;5.70;2.75;;;;;;;;;;5069156;28;20504;-80
2022/04/02 00:35:55;;;;;;;8.30;3.00;;;;;;;;;;5051285;28;20083;-80
2022/04/02 00:38:21;;;;;;;5.97;2.78;;;;;;;;;;5067972;28;20040;-80
2022/04/02 00:40:47;;;;;;;7.22;2.80;;;;;;;;;;5067761;28;20106;-80
2022/04/02 00:43:27;;;;;;;6.65;2.90;;;;;;;;;;5050955;28;20555;-81
2022/04/02 00:45:54;;;;;;;7.28;2.95;;;;;;;;;;5068157;28;20391;-81
2022/04/02 00:48:20;;;;;;;7.32;3.20;;;;;;;;;;5050847;28;20036;-81
2022/04/02 00:50:47;;;;;;;7.55;2.67;;;;;;;;;;5067843;28;20074;-80
2022/04/02 00:53:15;;;;;;;7.28;3.00;;;;;;;;;;5067457;28;20036;-80
2022/04/02 00:55:42;;;;;;;7.38;3.13;;;;;;;;;;5067871;28;20048;-80
2022/04/02 00:58:10;;;;;;;6.35;2.80;;;;;;;;;;5068003;28;20063;-81
2022/04/02 01:00:37;;;;;;;8.20;3.00;;;;;;;;;;5068015;28;20053;-80
2022/04/02 01:03:03;;;;;;;5.85;3.17;;;;;;;;;;5068698;28;20311;-80
2022/04/02 01:05:29;;;;;;;5.10;2.92;;;;;;;;;;5071395;28;20047;-81
2022/04/02 01:07:56;;;;;;;5.40;2.80;;;;;;;;;;5055367;28;20492;-80
2022/04/02 01:10:23;;;;;;;7.47;2.90;;;;;;;;;;5071411;28;20051;-80
2022/04/02 01:12:49;;;;;;;5.82;2.72;;;;;;;;;;5071820;28;20480;-81
2022/04/02 01:15:16;;;;;;;7.50;3.03;;;;;;;;;;5054794;28;20193;-80
2022/04/02 01:17:42;;;;;;;4.70;2.67;;;;;;;;;;5055032;28;20480;-80
2022/04/02 01:20:10;;;;;;;5.22;2.72;;;;;;;;;;5071328;28;20499;-80
2022/04/02 01:22:37;;;;;;;6.13;3.13;;;;;;;;;;5071289;28;20068;-80
2022/04/02 01:25:05;;;;;;;5.85;2.70;;;;;;;;;;5071094;28;20037;-77
2022/04/02 01:27:31;;;;;;;6.43;2.90;;;;;;;;;;5054469;28;20094;-78
2022/04/02 01:29:57;;;;;;;6.55;3.20;;;;;;;;;;5071331;28;20495;-78
2022/04/02 01:32:23;;;;;;;10.73;2.97;;;;;;;;;;5054528;28;20090;-77
2022/04/02 01:34:49;;;;;;;6.80;2.80;;;;;;;;;;5054451;28;20562;-78
2022/04/02 01:37:17;;;;;;;5.95;2.53;;;;;;;;;;5070526;28;20042;-78
2022/04/02 01:39:43;;;;;;;6.55;2.80;;;;;;;;;;5071141;28;20047;-78
2022/04/02 01:42:10;;;;;;;4.75;2.42;;;;;;;;;;5070691;28;20514;-77
2022/04/02 01:44:36;;;;;;;5.05;3.10;;;;;;;;;;5071014;28;20044;-80
2022/04/02 01:47:02;;;;;;;6.28;3.08;;;;;;;;;;5070510;28;20032;-80
2022/04/02 01:49:28;;;;;;;9.10;3.13;;;;;;;;;;5072286;28;20062;-81
2022/04/02 01:51:54;;;;;;;9.48;2.80;;;;;;;;;;5070665;28;20056;-80
2022/04/02 01:54:20;;;;;;;5.57;2.67;;;;;;;;;;5070722;28;20045;-80
2022/04/02 01:56:48;;;;;;;6.43;2.90;;;;;;;;;;5071086;28;20047;-77
2022/04/02 01:59:14;;;;;;;4.75;2.67;;;;;;;;;;5054174;28;20471;-77
2022/04/02 02:01:40;;;;;;;6.47;2.78;;;;;;;;;;5068493;28;20037;-77
2022/04/02 02:04:06;;;;;;;5.57;2.55;;;;;;;;;;5069724;28;20044;-77
2022/04/02 02:06:38;;;;;;;7.18;3.35;;;;;;;;;;5069543;28;20048;-78
2022/04/02 02:09:04;;;;;;;5.28;2.42;;;;;;;;;;5068706;28;20043;-77
2022/04/02 02:11:30;;;;;;;4.97;2.70;;;;;;;;;;5070905;28;20606;-78
2022/04/02 02:13:56;;;;;;;6.38;2.80;;;;;;;;;;5070509;28;20036;-80
2022/04/02 02:16:22;;;;;;;6.38;2.80;;;;;;;;;;5070256;28;20109;-77
2022/04/02 02:18:48;;;;;;;4.82;2.53;;;;;;;;;;5070343;28;20037;-77
2022/04/02 02:21:14;;;;;;;6.32;2.72;;;;;;;;;;5053991;28;20477;-79
2022/04/02 02:23:40;;;;;;;6.57;3.10;;;;;;;;;;5070160;28;20062;-77
2022/04/02 02:26:06;;;;;;;6.75;2.45;;;;;;;;;;5069939;28;20086;-77
2022/04/02 02:28:32;;;;;;;5.70;2.50;;;;;;;;;;5070156;28;20036;-80
2022/04/02 02:30:59;;;;;;;6.55;2.80;;;;;;;;;;5053638;28;20040;-80
2022/04/02 02:36:10;;;;;;;5.55;2.67;;;;;;;;;;5069793;28;20068;-79
2022/04/02 02:38:36;;;;;;;5.15;2.80;;;;;;;;;;5053740;28;20426;-77
2022/04/02 02:41:03;;;;;;;6.93;2.95;;;;;;;;;;5069598;28;20036;-79
2022/04/02 02:43:29;;;;;;;6.25;2.65;;;;;;;;;;5070213;28;20446;-77
2022/04/02 02:45:55;;;;;;;7.97;2.83;;;;;;;;;;5069797;28;20040;-77
2022/04/02 02:48:21;;;;;;;4.65;2.70;;;;;;;;;;5069442;28;20044;-77
2022/04/02 02:50:48;;;;;;;8.40;3.30;;;;;;;;;;5053267;28;20086;-80
2022/04/02 02:53:14;;;;;;;8.35;2.83;;;;;;;;;;5052827;28;20110;-80
2022/04/02 02:55:41;;;;;;;7.95;2.65;;;;;;;;;;5053025;28;20400;-79
2022/04/02 02:58:08;;;;;;;6.15;2.63;;;;;;;;;;5052289;28;20064;-79
2022/04/02 03:00:34;;;;;;;7.32;2.97;;;;;;;;;;5053310;28;20044;-79
2022/04/02 03:03:00;;;;;;;5.05;2.67;;;;;;;;;;5052846;28;20170;-79
2022/04/02 03:05:26;;;;;;;6.63;3.20;;;;;;;;;;5053316;28;20412;-79
2022/04/02 03:07:52;;;;;;;6.68;3.08;;;;;;;;;;5069273;28;20093;-77
2022/04/02 03:10:19;;;;;;;4.63;2.65;;;;;;;;;;5069352;28;20044;-76
2022/04/02 03:12:47;;;;;;;5.28;3.20;;;;;;;;;;5052737;28;20052;-77
2022/04/02 03:15:15;;;;;;;7.38;3.20;;;;;;;;;;5068754;28;20044;-76
2022/04/02 03:17:43;;;;;;;6.95;3.33;;;;;;;;;;5069244;28;20047;-77
2022/04/02 03:20:11;;;;;;;6.80;2.92;;;;;;;;;;5052519;28;20494;-76
2022/04/02 03:22:40;;;;;;;8.43;3.05;;;;;;;;;;5069089;28;20044;-76
2022/04/02 03:25:10;;;;;;;7.05;3.30;;;;;;;;;;5068167;28;20045;-77
2022/04/02 03:27:40;;;;;;;8.52;3.50;;;;;;;;;;5068611;28;20044;-76
2022/04/02 03:30:08;;;;;;;5.00;2.72;;;;;;;;;;5068544;28;20048;-77
2022/04/02 03:32:35;;;;;;;5.97;3.15;;;;;;;;;;5069140;28;20478;-76
2022/04/02 03:35:01;;;;;;;7.32;3.20;;;;;;;;;;5068952;28;20077;-76
2022/04/02 03:37:28;;;;;;;6.45;3.20;;;;;;;;;;5068873;28;20040;-76
2022/04/02 03:39:54;;;;;;;6.00;3.22;;;;;;;;;;5052185;28;20041;-76
2022/04/02 03:42:21;;;;;;;7.22;3.33;;;;;;;;;;5069040;28;20036;-76
2022/04/02 03:44:47;;;;;;;8.57;3.28;;;;;;;;;;5068895;28;20047;-76
2022/04/02 03:47:15;;;;;;;7.05;3.50;;;;;;;;;;5068544;28;20041;-76
2022/04/02 03:49:42;;;;;;;5.97;3.10;;;;;;;;;;5068984;28;20032;-76
2022/04/02 03:52:09;;;;;;;6.68;3.10;;;;;;;;;;5051667;28;20040;-76
2022/04/02 03:54:36;;;;;;;8.38;3.38;;;;;;;;;;5068543;28;21476;-76
2022/04/02 03:57:03;;;;;;;7.47;3.38;;;;;;;;;;5051570;28;20063;-77
2022/04/02 03:59:30;;;;;;;9.45;2.90;;;;;;;;;;5052086;28;20500;-76
2022/04/02 04:01:56;;;;;;;7.68;3.10;;;;;;;;;;5063254;28;20447;-76
2022/04/02 04:04:24;;;;;;;6.97;3.30;;;;;;;;;;5066962;28;20487;-76
2022/04/02 04:06:50;;;;;;;6.35;3.25;;;;;;;;;;5066541;28;20115;-76
2022/04/02 04:09:17;;;;;;;7.03;3.35;;;;;;;;;;5067586;28;20097;-76
2022/04/02 04:11:43;;;;;;;5.38;3.22;;;;;;;;;;5068364;28;20044;-76
2022/04/02 04:14:09;;;;;;;8.25;3.22;;;;;;;;;;5051354;28;20040;-76
2022/04/02 04:16:36;;;;;;;6.55;3.10;;;;;;;;;;5068488;28;20049;-76
2022/04/02 04:19:02;;;;;;;6.28;3.03;;;;;;;;;;5067239;28;20036;-76
2022/04/02 04:21:28;;;;;;;7.45;3.67;;;;;;;;;;5051381;28;20048;-79
2022/04/02 04:23:54;;;;;;;5.97;3.40;;;;;;;;;;5068334;28;20072;-80
2022/04/02 04:26:20;;;;;;;6.78;3.20;;;;;;;;;;5068486;28;20083;-79
2022/04/02 04:28:47;;;;;;;9.02;3.42;;;;;;;;;;5068129;28;20070;-76
2022/04/02 04:31:17;;;;;;;10.10;3.88;;;;;;;;;;5067321;28;20036;-79
2022/04/02 04:33:47;;;;;;;8.15;3.67;;;;;;;;;;5067662;28;20060;-79
2022/04/02 04:36:14;;;;;;;7.60;3.40;;;;;;;;;;5065833;28;20047;-76
2022/04/02 04:38:41;;;;;;;8.18;3.42;;;;;;;;;;5070445;28;20508;-76
2022/04/02 04:41:07;;;;;;;8.30;3.50;;;;;;;;;;5054980;28;20045;-76
2022/04/02 04:43:35;;;;;;;6.63;3.33;;;;;;;;;;5055784;28;20480;-76
2022/04/02 04:46:02;;;;;;;5.30;2.92;;;;;;;;;;5072987;28;20033;-77
2022/04/02 04:48:29;;;;;;;7.97;3.30;;;;;;;;;;5071924;28;20037;-76
2022/04/02 04:50:55;;;;;;;8.15;3.40;;;;;;;;;;5073303;28;20158;-76
2022/04/02 04:53:21;;;;;;;14.95;3.35;;;;;;;;;;5071876;28;20045;-76
2022/04/02 04:55:48;;;;;;;7.38;3.15;;;;;;;;;;5055211;28;20048;-76
2022/04/02 04:58:14;;;;;;;6.50;3.10;;;;;;;;;;5071801;28;20036;-76
2022/04/02 05:00:43;;;;;;;8.77;3.00;;;;;;;;;;5073127;28;20044;-76
2022/04/02 05:03:10;;;;;;;7.22;2.95;;;;;;;;;;5072669;28;20043;-76
2022/04/02 05:05:37;;;;;;;9.43;3.08;;;;;;;;;;5071526;28;20083;-76
2022/04/02 05:08:03;;;;;;;6.85;2.90;;;;;;;;;;5071463;28;20545;-76
2022/04/02 05:10:29;;;;;;;5.47;2.83;;;;;;;;;;5071958;28;20094;-76
2022/04/02 05:12:55;;;;;;;6.80;2.90;;;;;;;;;;5072140;28;20453;-76
2022/04/02 05:15:22;;;;;;;4.95;2.60;;;;;;;;;;5071259;28;20033;-77
2022/04/02 05:17:48;;;;;;;6.90;2.65;;;;;;;;;;5071663;28;20267;-76
2022/04/02 05:20:14;;;;;;;6.15;2.80;;;;;;;;;;5071012;28;20036;-76
2022/04/02 05:22:41;;;;;;;7.75;3.03;;;;;;;;;;5071577;28;20126;-77
2022/04/02 05:25:08;;;;;;;6.07;2.97;;;;;;;;;;5071044;28;20140;-76
2022/04/02 05:27:34;;;;;;;5.15;2.72;;;;;;;;;;5054709;28;20040;-76
2022/04/02 05:30:01;;;;;;;7.20;2.40;;;;;;;;;;5071282;28;20040;-76
2022/04/02 05:32:30;;;;;;;5.88;2.70;;;;;;;;;;5072625;28;20036;-76
2022/04/02 05:34:57;;;;;;;5.38;2.38;;;;;;;;;;5072630;28;20044;-76
2022/04/02 05:37:23;;;;;;;5.88;2.50;;;;;;;;;;5071085;28;20033;-77
2022/04/02 05:39:50;;;;;;;4.82;2.50;;;;;;;;;;5072625;28;20043;-76
2022/04/02 05:42:16;;;;;;;4.68;2.08;;;;;;;;;;5070302;28;20093;-76
2022/04/02 05:44:42;;;;;;;8.50;3.03;;;;;;;;;;5070953;28;20041;-76
2022/04/02 05:47:09;;;;;;;4.88;2.10;;;;;;;;;;5070622;28;20048;-76
2022/04/02 05:49:35;;;;;;;4.13;2.03;;;;;;;;;;5070338;28;20108;-76
2022/04/02 05:52:02;;;;;;;4.82;2.25;;;;;;;;;;5070281;28;20036;-76
2022/04/02 05:54:28;;;;;;;4.30;2.15;;;;;;;;;;5054462;28;20044;-76
2022/04/02 05:56:54;;;;;;;7.20;2.60;;;;;;;;;;5054768;28;20036;-76
2022/04/02 05:59:21;;;;;;;5.22;2.13;;;;;;;;;;5070637;28;20139;-76
2022/04/02 06:01:47;;;;;;;6.55;2.10;;;;;;;;;;5070573;28;20055;-79
2022/04/02 06:04:14;;;;;;;6.00;1.95;;;;;;;;;;5071615;28;20085;-76
2022/04/02 06:06:40;;;;;;;6.32;2.05;;;;;;;;;;5053523;28;20037;-76
2022/04/02 06:09:06;;;;;;;4.65;2.03;;;;;;;;;;5069761;28;20048;-76
2022/04/02 06:11:32;;;;;;;6.25;2.47;;;;;;;;;;5070468;28;20037;-76
2022/04/02 06:13:58;;;;;;;7.07;2.58;;;;;;;;;;5070720;28;20036;-79
2022/04/02 06:16:25;;;;;;;5.15;2.50;;;;;;;;;;5070533;28;20048;-80
2022/04/02 06:18:52;;;;;;;4.53;2.03;;;;;;;;;;5053638;28;20145;-81
2022/04/02 06:21:18;;;;;;;5.55;2.00;;;;;;;;;;5070129;28;20044;-81
2022/04/02 06:23:44;;;;;;;4.88;1.75;;;;;;;;;;5070748;28;20090;-82
2022/04/02 06:26:11;;;;;;;4.95;1.90;;;;;;;;;;5070127;28;20468;-81
2022/04/02 06:28:37;;;;;;;5.47;1.88;;;;;;;;;;5053570;28;20028;-81
2022/04/02 06:31:07;;;;;;;7.03;2.30;;;;;;;;;;5069967;28;20040;-81
2022/04/02 06:33:33;;;;;;;6.45;1.92;;;;;;;;;;5053646;28;20049;-81
2022/04/02 06:36:00;;;;;;;6.35;2.50;;;;;;;;;;5052874;28;20071;-81
2022/04/02 06:38:26;;;;;;;5.60;2.03;;;;;;;;;;5053147;28;20101;-80
2022/04/02 06:40:53;;;;;;;4.63;1.90;;;;;;;;;;5053423;28;20051;-81
2022/04/02 06:43:20;;;;;;;5.13;2.45;;;;;;;;;;5070851;28;20041;-80
2022/04/02 06:45:46;;;;;;;5.10;2.00;;;;;;;;;;5069702;28;20138;-81
2022/04/02 06:48:13;;;;;;;5.03;2.13;;;;;;;;;;5052871;28;20032;-82
2022/04/02 06:50:40;;;;;;;4.45;2.00;;;;;;;;;;5069577;28;20050;-80
2022/04/02 06:53:06;;;;;;;4.25;1.90;;;;;;;;;;5069589;28;20032;-79
2022/04/02 06:55:33;;;;;;;6.43;2.03;;;;;;;;;;5070085;28;20116;-81
2022/04/02 06:57:59;;;;;;;6.43;2.58;;;;;;;;;;5069510;28;20051;-80
2022/04/02 07:00:26;;;;;;;3.97;2.50;;;;;;;;;;5051856;28;20487;-80
2022/04/02 07:02:52;;;;;;;6.82;2.38;;;;;;;;;;5069630;28;20048;-81
2022/04/02 07:05:18;;;;;;;4.88;2.20;;;;;;;;;;5052666;28;20040;-80
2022/04/02 07:07:49;;;;;;;4.68;1.80;;;;;;;;;;5069771;28;20391;-80
2022/04/02 07:10:15;;;;;;;4.93;2.00;;;;;;;;;;5069617;28;20044;-80
2022/04/02 07:12:41;;;;;;;5.43;1.85;;;;;;;;;;5068993;28;20086;-81
2022/04/02 07:15:08;;;;;;;5.40;2.03;;;;;;;;;;5069002;28;20029;-79
2022/04/02 07:17:34;;;;;;;4.45;1.95;;;;;;;;;;5036386;28;20029;-80
2022/04/02 07:20:01;;;;;;;3.42;1.92;;;;;;;;;;5069384;28;20552;-82
2022/04/02 07:22:27;;;;;;;4.50;1.73;;;;;;;;;;5069443;28;20102;-80
2022/04/02 07:24:54;;;;;;;5.00;1.98;;;;;;;;;;5068913;28;20037;-79
2022/04/02 07:27:29;;;;;;;4.72;1.90;;;;;;;;;;5069160;28;20419;-81
2022/04/02 07:29:55;;;;;;;3.83;1.83;;;;;;;;;;5052538;28;20395;-81
2022/04/02 07:32:21;;;;;;;5.70;1.90;;;;;;;;;;5052305;28;20511;-81
2022/04/02 07:34:48;;;;;;;4.07;1.80;;;;;;;;;;5068736;28;20052;-81
2022/04/02 07:37:33;;;;;;;4.35;1.90;;;;;;;;;;5068609;28;20047;-80
2022/04/02 07:40:06;;;;;;;4.95;1.90;;;;;;;;;;5068727;28;20118;-78
2022/04/02 07:42:37;;;;;;;3.38;1.77;;;;;;;;;;5068608;28;20052;-81
2022/04/02 07:45:04;;;;;;;4.13;1.85;;;;;;;;;;5068750;28;20107;-81
2022/04/02 07:47:32;;;;;;;3.15;1.50;;;;;;;;;;5068954;28;20043;-80
2022/04/02 07:50:01;;;;;;;3.80;2.00;;;;;;;;;;5069130;28;20044;-80
2022/04/02 07:52:28;;;;;;;4.63;1.88;;;;;;;;;;5068482;28;20040;-81
2022/04/02 07:54:59;;;;;;;4.75;2.00;;;;;;;;;;5052422;28;20444;-79
2022/04/02 07:57:28;;;;;;;5.13;2.05;;;;;;;;;;5068510;28;20036;-78
2022/04/02 07:59:59;;;;;;;3.30;1.70;;;;;;;;;;5068441;28;20048;-80
2022/04/02 08:02:36;;;;;;;7.38;2.50;;;;;;;;;;5068143;28;20106;-78
2022/04/02 08:05:02;;;;;;;4.15;1.63;;;;;;;;;;5068397;28;20058;-78
2022/04/02 08:07:32;;;;;;;2.83;1.70;;;;;;;;;;5052043;28;20439;-78
2022/04/02 08:09:59;;;;;;;5.10;1.73;;;;;;;;;;5068444;28;20033;-79
2022/04/02 08:12:25;;;;;;;3.65;1.92;;;;;;;;;;5067987;28;20051;-79
2022/04/02 08:14:52;;;;;;;5.03;1.58;;;;;;;;;;5068340;28;20068;-77
2022/04/02 08:17:22;;;;;;;5.15;1.85;;;;;;;;;;5068161;28;20044;-77
2022/04/02 08:19:51;;;;;;;3.53;1.60;;;;;;;;;;5051632;28;20044;-79
2022/04/02 08:22:18;;;;;;;4.20;1.70;;;;;;;;;;5067836;28;20032;-79
2022/04/02 08:24:44;;;;;;;4.47;1.50;;;;;;;;;;5051741;28;20086;-79
2022/04/02 08:27:17;;;;;;;3.35;1.60;;;;;;;;;;5068128;28;20037;-78
2022/04/02 08:29:56;;;;;;;3.63;1.83;;;;;;;;;;5051622;28;20037;-78
2022/04/02 08:32:41;;;;;;;4.88;2.00;;;;;;;;;;5067919;28;20040;-78
2022/04/02 08:35:08;;;;;;;4.57;1.70;;;;;;;;;;5068679;28;20450;-78
2022/04/02 08:37:37;;;;;;;8.07;1.90;;;;;;;;;;5068677;28;20527;-80
2022/04/02 08:40:17;;;;;;;3.47;1.80;;;;;;;;;;5067641;28;20044;-80
2022/04/02 08:43:02;;;;;;;3.95;1.50;;;;;;;;;;5068559;28;20153;-79
2022/04/02 08:45:30;;;;;;;3.25;1.40;;;;;;;;;;5068798;28;20079;-80
2022/04/02 08:47:59;;;;;;;4.03;1.52;;;;;;;;;;5068434;28;20068;-80
2022/04/02 08:50:34;;;;;;;5.32;1.30;;;;;;;;;;5069219;28;20108;-80
2022/04/02 08:53:20;;;;;;;3.47;1.55;;;;;;;;;;5066439;28;20044;-80
2022/04/02 08:55:48;;;;;;;3.60;1.48;;;;;;;;;;5067247;28;20076;-80
2022/04/02 08:58:38;;;;;;;4.90;1.33;;;;;;;;;;5052304;28;20477;-79
2022/04/02 09:01:11;;;;;;;3.63;1.20;;;;;;;;;;5051869;28;20049;-80
2022/04/02 09:04:01;;;;;;;3.40;1.42;;;;;;;;;;5068453;28;20050;-81
2022/04/02 09:06:39;;;;;;;3.70;1.30;;;;;;;;;;5067924;28;20036;-78
2022/04/02 09:09:06;;;;;;;5.72;1.80;;;;;;;;;;5067752;28;20493;-80
2022/04/02 09:11:59;;;;;;;6.88;1.30;;;;;;;;;;5067410;28;20040;-79
2022/04/02 09:14:46;;;;;;;4.32;1.50;;;;;;;;;;5051870;28;20044;-80
2022/04/02 09:17:27;;;;;;;2.42;1.15;;;;;;;;;;5067039;28;20109;-80
2022/04/02 09:20:09;;;;;;;5.38;1.45;;;;;;;;;;5068869;28;20040;-79
2022/04/02 09:22:36;;;;;;;4.10;1.50;;;;;;;;;;5050184;28;20399;-81
2022/04/02 09:25:17;;;;;;;3.17;1.27;;;;;;;;;;5071695;28;20123;-80
2022/04/02 09:27:56;;;;;;;3.55;1.40;;;;;;;;;;5055485;28;20556;-80
2022/04/02 09:30:41;;;;;;;3.35;1.40;;;;;;;;;;5071709;28;20047;-79
2022/04/02 09:33:26;;;;;;;3.75;1.40;;;;;;;;;;5071745;28;20055;-78
2022/04/02 09:35:57;;;;;;;3.88;1.50;;;;;;;;;;5070852;28;20052;-83
2022/04/02 09:38:42;;;;;;;3.78;1.40;;;;;;;;;;5071358;28;20036;-79
2022/04/02 09:41:22;;;;;;;3.28;1.40;;;;;;;;;;5070842;28;20105;-79
2022/04/02 09:43:54;;;;;;;3.92;1.17;;;;;;;;;;5054739;28;20479;-79
2022/04/02 09:46:34;;;;;;;3.67;1.25;;;;;;;;;;5054492;28;20037;-79
2022/04/02 09:49:01;;;;;;;4.05;1.30;;;;;;;;;;5071439;28;20358;-80
2022/04/02 09:51:31;;;;;;;3.53;1.30;;;;;;;;;;5072468;28;20049;-79
2022/04/02 09:54:02;;;;;;;4.00;1.30;;;;;;;;;;5071817;28;20044;-78
2022/04/02 09:56:33;;;;;;;4.43;1.30;;;;;;;;;;5071253;28;20491;-79
2022/04/02 09:59:08;;;;;;;3.47;1.30;;;;;;;;;;5071482;28;20045;-80
2022/04/02 10:01:49;;;;;;;3.90;1.30;;;;;;;;;;5054364;28;20078;-80
2022/04/02 10:04:23;;;;;;;3.90;1.20;;;;;;;;;;5072059;28;20036;-78
2022/04/02 10:06:50;;;;;;;3.47;1.23;;;;;;;;;;5061220;28;20043;-79
2022/04/02 10:09:20;;;;;;;3.33;1.40;;;;;;;;;;5069552;28;20098;-80
2022/04/02 10:11:49;;;;;;;4.72;1.30;;;;;;;;;;5071329;28;20051;-80
2022/04/02 10:14:20;;;;;;;3.40;1.20;;;;;;;;;;5070703;28;20047;-80
2022/04/02 10:16:50;;;;;;;2.97;1.20;;;;;;;;;;5070843;28;20048;-80
2022/04/02 10:19:17;;;;;;;4.22;1.27;;;;;;;;;;5070665;28;20392;-80
2022/04/02 10:21:48;;;;;;;3.50;1.38;;;;;;;;;;5071169;28;20045;-78
2022/04/02 10:24:20;;;;;;;7.95;1.30;;;;;;;;;;5070756;28;20055;-79
2022/04/02 10:26:48;;;;;;;4.07;1.17;;;;;;;;;;5054176;28;20080;-78
2022/04/02 10:29:18;;;;;;;2.80;1.40;;;;;;;;;;5070140;28;20047;-77
2022/04/02 10:31:52;;;;;;;4.10;1.40;;;;;;;;;;5070677;28;20044;-78
2022/04/02 10:34:22;;;;;;;2.58;1.45;;;;;;;;;;5069749;28;20106;-78
2022/04/02 10:36:52;;;;;;;3.30;1.23;;;;;;;;;;5070270;28;20071;-79
2022/04/02 10:39:22;;;;;;;2.65;1.27;;;;;;;;;;5070281;28;20039;-78
2022/04/02 10:41:53;;;;;;;4.90;1.20;;;;;;;;;;5070088;28;20127;-80
2022/04/02 10:44:25;;;;;;;2.55;1.00;;;;;;;;;;5069879;28;20042;-79
2022/04/02 10:46:53;;;;;;;2.60;1.23;;;;;;;;;;5070508;28;20527;-80
2022/04/02 10:49:26;;;;;;;2.65;1.42;;;;;;;;;;5053055;28;20037;-78
2022/04/02 10:51:54;;;;;;;5.07;1.30;;;;;;;;;;5070011;28;20045;-79
2022/04/02 10:54:27;;;;;;;5.78;1.35;;;;;;;;;;5069868;28;20484;-79
2022/04/02 10:56:55;;;;;;;4.32;1.45;;;;;;;;;;5069914;28;20109;-79
2022/04/02 10:59:21;;;;;;;3.83;1.38;;;;;;;;;;5069841;28;20041;-78
2022/04/02 11:01:52;;;;;;;2.25;1.20;;;;;;;;;;5069817;28;20178;-79
2022/04/02 11:04:44;;;;;;;2.42;1.20;;;;;;;;;;5066943;28;20044;-80
2022/04/02 11:07:10;;;;;;;4.75;1.40;;;;;;;;;;5052894;28;20105;-78
2022/04/02 11:09:40;;;;;;;4.13;1.40;;;;;;;;;;5069526;28;20040;-78
2022/04/02 11:12:07;;;;;;;3.65;1.20;;;;;;;;;;5069386;28;20115;-78
2022/04/02 11:14:37;;;;;;;3.28;1.27;;;;;;;;;;5069174;28;20078;-78
2022/04/02 11:17:04;;;;;;;2.60;1.20;;;;;;;;;;5067046;28;20041;-79
2022/04/02 11:22:22;;;;;;;3.10;1.30;;;;;;;;;;5067323;28;20056;-77
2022/04/02 11:24:48;;;;;;;3.42;1.38;;;;;;;;;;5069773;28;20476;-79
2022/04/02 11:27:17;;;;;;;4.15;1.50;;;;;;;;;;5070598;28;20538;-78
2022/04/02 11:29:46;;;;;;;4.05;1.40;;;;;;;;;;5070802;28;20563;-80
2022/04/02 11:32:13;;;;;;;4.72;1.40;;;;;;;;;;5069034;28;20037;-78
2022/04/02 11:34:41;;;;;;;3.90;1.20;;;;;;;;;;5069111;28;20437;-78
2022/04/02 11:37:10;;;;;;;3.92;1.23;;;;;;;;;;5069340;28;20395;-79
2022/04/02 11:39:49;;;;;;;3.28;1.27;;;;;;;;;;5069325;28;20682;-83
2022/04/02 11:42:15;;;;;;;3.35;1.40;;;;;;;;;;5068796;28;20560;-78
2022/04/02 11:44:50;;;;;;;7.00;1.20;;;;;;;;;;5068772;28;20064;-77
2022/04/02 11:47:25;;;;;;;4.82;1.20;;;;;;;;;;5068366;28;20094;-76
2022/04/02 11:49:53;;;;;;;4.22;1.30;;;;;;;;;;5068911;28;20048;-77
2022/04/02 11:52:19;;;;;;;3.20;1.20;;;;;;;;;;5068713;28;20044;-77
2022/04/02 11:54:45;;;;;;;4.95;1.30;;;;;;;;;;5068706;28;20052;-79
2022/04/02 11:57:12;;;;;;;4.85;1.40;;;;;;;;;;5066308;28;20119;-78
2022/04/02 11:59:49;;;;;;;4.38;1.50;;;;;;;;;;5052440;28;20040;-78
2022/04/02 12:02:34;;;;;;;3.88;1.30;;;;;;;;;;5068281;28;20048;-77
2022/04/02 12:05:00;;;;;;;4.07;1.40;;;;;;;;;;5067726;28;20043;-77
2022/04/02 12:07:38;;;;;;;3.95;1.60;;;;;;;;;;5068550;28;20039;-76
2022/04/02 12:10:05;;;;;;;4.15;1.77;;;;;;;;;;5068622;28;20106;-79
2022/04/02 12:12:31;;;;;;;3.00;1.45;;;;;;;;;;5052026;28;20066;-79
2022/04/02 12:15:08;;;;;;;5.35;1.60;;;;;;;;;;5068385;28;20040;-77
2022/04/02 12:17:35;;;;;;;2.75;1.30;;;;;;;;;;5068459;28;20192;-77
2022/04/02 12:20:01;;;;;;;3.58;1.50;;;;;;;;;;5068180;28;20048;-78
2022/04/02 12:22:33;;;;;;;3.20;1.30;;;;;;;;;;5068130;28;20070;-78
2022/04/02 12:25:04;;;;;;;4.07;1.52;;;;;;;;;;5068663;28;20392;-78
2022/04/02 12:27:31;;;;;;;5.13;1.38;;;;;;;;;;5051552;28;20037;-80
2022/04/02 12:29:58;;;;;;;3.28;1.50;;;;;;;;;;5068946;28;20045;-78
2022/04/02 12:32:30;;;;;;;4.10;1.30;;;;;;;;;;5052165;28;20063;-77
2022/04/02 12:34:57;;;;;;;3.45;1.20;;;;;;;;;;5069166;28;20052;-80
2022/04/02 12:37:24;;;;;;;3.70;1.20;;;;;;;;;;5067828;28;20071;-80
2022/04/02 12:39:52;;;;;;;3.85;1.42;;;;;;;;;;5051570;28;20400;-76
2022/04/02 12:42:35;;;;;;;3.22;1.20;;;;;;;;;;5068005;28;20044;-79
2022/04/02 12:45:05;;;;;;;2.85;1.30;;;;;;;;;;5068520;28;20044;-79
2022/04/02 12:47:32;;;;;;;3.15;1.05;;;;;;;;;;5051901;28;20028;-76
2022/04/02 12:50:10;;;;;;;3.92;1.40;;;;;;;;;;5068454;28;20032;-78
2022/04/02 12:52:43;;;;;;;3.50;1.23;;;;;;;;;;5068212;28;20432;-78
2022/04/02 12:55:16;;;;;;;3.72;1.25;;;;;;;;;;5068409;28;20040;-77
2022/04/02 12:57:45;;;;;;;6.25;1.30;;;;;;;;;;5066454;28;20480;-84
2022/04/02 13:00:25;;;;;;;3.75;1.30;;;;;;;;;;5071568;28;20515;-78
2022/04/02 13:02:55;;;;;;;2.72;1.20;;;;;;;;;;5073124;28;20131;-77
2022/04/02 13:05:23;;;;;;;2.15;1.00;;;;;;;;;;5071720;28;20048;-79
2022/04/02 13:08:04;;;;;;;3.88;1.17;;;;;;;;;;5055513;28;20037;-78
2022/04/02 13:10:30;;;;;;;4.63;1.20;;;;;;;;;;5071748;28;20036;-76
2022/04/02 13:13:03;;;;;;;3.90;1.20;;;;;;;;;;5055514;28;20055;-78
2022/04/02 13:15:29;;;;;;;3.83;1.23;;;;;;;;;;5055578;28;20024;-76
2022/04/02 13:20:44;;;;;;;6.45;1.20;;;;;;;;;;5072979;28;20040;-78
2022/04/02 13:23:22;;;;;;;4.13;1.13;;;;;;;;;;5071991;28;20029;-76
2022/04/02 13:25:54;;;;;;;3.63;1.30;;;;;;;;;;5071858;28;20404;-76
2022/04/02 13:28:44;;;;;;;4.47;1.30;;;;;;;;;;5071557;28;20047;-76
2022/04/02 13:31:10;;;;;;;4.35;1.15;;;;;;;;;;5071758;28;20444;-78
2022/04/02 13:33:36;;;;;;;4.97;1.20;;;;;;;;;;5054719;28;20057;-78
2022/04/02 13:36:21;;;;;;;2.20;1.00;;;;;;;;;;5071795;28;20510;-77
2022/04/02 13:38:58;;;;;;;4.07;1.27;;;;;;;;;;5072098;28;20510;-77
2022/04/02 13:41:31;;;;;;;2.28;1.00;;;;;;;;;;5071177;28;20550;-78
2022/04/02 13:43:58;;;;;;;3.75;1.25;;;;;;;;;;5071757;28;20559;-78
2022/04/02 13:46:25;;;;;;;3.33;0.95;;;;;;;;;;5071460;28;20044;-75
2022/04/02 13:48:56;;;;;;;5.18;1.35;;;;;;;;;;5054654;28;20172;-78
2022/04/02 13:51:32;;;;;;;2.85;1.10;;;;;;;;;;5071255;28;20403;-78
2022/04/02 13:54:04;;;;;;;4.20;1.10;;;;;;;;;;5071418;28;20098;-77
2022/04/02 13:56:33;;;;;;;3.70;1.00;;;;;;;;;;5069834;28;20105;-76
2022/04/02 13:59:01;;;;;;;3.25;1.10;;;;;;;;;;5055075;28;20541;-76
2022/04/02 14:01:29;;;;;;;2.80;1.20;;;;;;;;;;5070680;28;20102;-79
2022/04/02 14:04:21;;;;;;;3.75;1.20;;;;;;;;;;5054532;28;20041;-79
2022/04/02 14:06:51;;;;;;;4.18;1.10;;;;;;;;;;5064462;28;20112;-80
2022/04/02 14:09:22;;;;;;;2.75;1.00;;;;;;;;;;5070880;28;20040;-79
2022/04/02 14:11:49;;;;;;;5.13;1.10;;;;;;;;;;5071075;28;20479;-79
2022/04/02 14:14:25;;;;;;;3.60;1.10;;;;;;;;;;5070770;28;20048;-76
2022/04/02 14:17:08;;;;;;;3.47;1.00;;;;;;;;;;5071051;28;20110;-79
2022/04/02 14:19:46;;;;;;;4.20;1.08;;;;;;;;;;5070854;28;20381;-79
2022/04/02 14:22:13;;;;;;;4.93;1.00;;;;;;;;;;5070649;28;20040;-79
2022/04/02 14:24:49;;;;;;;3.60;1.05;;;;;;;;;;5054429;28;20029;-79
2022/04/02 14:27:21;;;;;;;5.35;1.20;;;;;;;;;;5053964;28;20043;-78
2022/04/02 14:30:06;;;;;;;2.38;1.20;;;;;;;;;;5054233;28;20079;-80
2022/04/02 14:33:16;;;;;;;5.47;1.20;;;;;;;;;;5069549;28;20118;-78
2022/04/02 14:35:48;;;;;;;3.50;1.17;;;;;;;;;;5012337;28;20045;-77
2022/04/02 14:38:33;;;;;;;2.67;1.17;;;;;;;;;;5012590;28;20075;-77
2022/04/02 14:40:59;;;;;;;4.00;1.02;;;;;;;;;;5050590;28;20407;-79
2022/04/02 14:43:25;;;;;;;6.38;1.00;;;;;;;;;;5070122;28;20066;-78
2022/04/02 14:46:10;;;;;;;5.05;1.10;;;;;;;;;;5053639;28;20488;-77
2022/04/02 14:48:39;;;;;;;3.75;1.10;;;;;;;;;;5070321;28;20036;-79
2022/04/02 14:51:17;;;;;;;5.40;1.33;;;;;;;;;;5070018;28;20480;-78
2022/04/02 14:54:02;;;;;;;3.55;1.15;;;;;;;;;;5069987;28;20076;-77
2022/04/02 14:56:28;;;;;;;2.67;1.10;;;;;;;;;;5070164;28;20051;-79
2022/04/02 14:58:54;;;;;;;4.25;1.00;;;;;;;;;;5070250;28;20175;-78
2022/04/02 15:01:39;;;;;;;2.53;1.20;;;;;;;;;;5069621;28;20404;-78
2022/04/02 15:04:32;;;;;;;3.80;1.08;;;;;;;;;;5069948;28;20029;-78
2022/04/02 15:07:04;;;;;;;2.95;1.00;;;;;;;;;;5052836;28;20041;-79